Time;durP1;ratioP1;P1;durP2;ratioP2;P2;SDS_P1;SDS_P2;PMS_P1;PMS_P2;Temp;Humidity;BMP_temperature;BMP_pressure;BME280_temperature;BME280_humidity;BME280_pressure;Samples;Min_cycle;Max_cycle;Signal;HPM_P1;HPM_P2
2024/01/28 00:00:38;;;;;;;15.02;9.35;;;;;;;-0.35;76.55;100295.63;5012436;28;102639;-73
2024/01/28 00:03:06;;;;;;;19.98;12.70;;;;;;;-0.29;75.90;100284.09;5009494;28;104083;-72
2024/01/28 00:05:36;;;;;;;15.55;9.70;;;;;;;-0.28;75.74;100288.41;4987789;28;104353;-74
2024/01/28 00:08:04;;;;;;;17.60;10.68;;;;;;;-0.20;75.66;100288.97;5012298;27;103021;-73
2024/01/28 00:10:34;;;;;;;14.63;10.90;;;;;;;-0.17;75.28;100288.84;5009074;28;102730;-74
2024/01/28 00:13:02;;;;;;;17.58;10.82;;;;;;;-0.21;75.00;100282.06;4998365;28;103258;-74
2024/01/28 00:15:30;;;;;;;23.10;14.27;;;;;;;-0.23;74.40;100278.66;4996003;28;104166;-73
2024/01/28 00:17:58;;;;;;;20.65;13.18;;;;;;;-0.39;75.13;100282.78;5011217;28;102617;-74
2024/01/28 00:20:26;;;;;;;21.45;14.57;;;;;;;-0.51;75.19;100282.34;4986996;28;102632;-74
2024/01/28 00:22:53;;;;;;;20.60;13.32;;;;;;;-0.55;75.82;100278.16;4988607;28;104266;-75
2024/01/28 00:25:21;;;;;;;20.75;14.32;;;;;;;-0.77;76.27;100277.25;5015282;28;103296;-73
2024/01/28 00:27:50;;;;;;;24.25;17.05;;;;;;;-0.80;77.33;100277.38;4996222;28;103225;-74
2024/01/28 00:30:18;;;;;;;22.90;15.00;;;;;;;-0.88;78.36;100273.34;4994423;28;102565;-73
2024/01/28 00:32:46;;;;;;;17.20;11.10;;;;;;;-0.78;77.63;100271.22;5010989;28;102910;-74
2024/01/28 00:35:15;;;;;;;16.40;10.50;;;;;;;-0.66;77.15;100275.13;5015966;28;103223;-74
2024/01/28 00:37:42;;;;;;;22.65;12.68;;;;;;;-0.70;77.02;100266.56;5013519;28;103273;-74
2024/01/28 00:40:11;;;;;;;23.45;14.25;;;;;;;-0.86;77.33;100266.31;5016133;28;102603;-74
2024/01/28 00:42:39;;;;;;;19.35;13.10;;;;;;;-0.84;77.94;100271.44;5017142;28;102564;-74
2024/01/28 00:45:10;;;;;;;21.35;14.43;;;;;;;-0.78;78.32;100258.22;5012176;27;103257;-73
2024/01/28 00:47:39;;;;;;;21.63;13.55;;;;;;;-0.70;78.31;100257.94;5014336;28;103167;-74
2024/01/28 00:50:10;;;;;;;15.45;10.50;;;;;;;-0.65;78.10;100253.41;5017435;28;102719;-73
2024/01/28 00:52:39;;;;;;;15.20;9.55;;;;;;;-0.60;77.67;100246.25;4992236;28;102793;-73
2024/01/28 00:55:08;;;;;;;16.67;10.65;;;;;;;-0.57;77.39;100242.69;5017000;28;103314;-73
2024/01/28 00:57:36;;;;;;;18.77;12.50;;;;;;;-0.53;77.10;100245.09;4992058;28;103099;-73
2024/01/28 01:00:06;;;;;;;23.52;14.68;;;;;;;-0.56;77.03;100244.41;5017158;28;102740;-74
2024/01/28 01:02:36;;;;;;;16.85;11.45;;;;;;;-0.58;77.37;100228.81;4998301;28;104148;-73
2024/01/28 01:05:04;;;;;;;17.17;10.80;;;;;;;-0.63;77.40;100229.91;5016618;28;103332;-73
2024/01/28 01:07:32;;;;;;;20.05;12.00;;;;;;;-0.59;77.26;100229.75;4998902;28;104458;-73
2024/01/28 01:10:00;;;;;;;16.10;9.18;;;;;;;-0.54;77.52;100222.63;5020484;27;102769;-73
2024/01/28 01:12:28;;;;;;;16.05;10.00;;;;;;;-0.47;77.13;100227.56;5021218;28;104108;-73
2024/01/28 01:14:56;;;;;;;13.30;9.68;;;;;;;-0.47;76.79;100219.75;5014320;28;103306;-73
2024/01/28 01:17:26;;;;;;;10.10;7.85;;;;;;;-0.45;76.82;100225.75;5012129;28;103045;-73
2024/01/28 01:19:55;;;;;;;20.38;12.60;;;;;;;-0.38;76.10;100222.00;5020334;28;102575;-73
2024/01/28 01:22:23;;;;;;;16.20;10.07;;;;;;;-0.49;76.05;100224.19;5018914;28;104073;-73
2024/01/28 01:24:51;;;;;;;19.17;13.07;;;;;;;-0.69;76.80;100218.00;4992284;28;104337;-74
2024/01/28 01:27:19;;;;;;;18.73;12.88;;;;;;;-0.76;77.34;100221.72;5013329;28;103191;-74
2024/01/28 01:29:47;;;;;;;14.27;10.07;;;;;;;-0.89;77.62;100219.59;4995127;28;102608;-73
2024/01/28 01:32:16;;;;;;;15.52;10.18;;;;;;;-0.94;77.68;100223.25;4997813;28;104122;-74
2024/01/28 01:34:43;;;;;;;21.52;13.70;;;;;;;-0.90;77.66;100223.09;5018209;28;103440;-74
2024/01/28 01:37:16;;;;;;;16.65;10.13;;;;;;;-0.77;78.04;100220.03;5018771;28;103233;-73
2024/01/28 01:39:44;;;;;;;19.20;11.73;;;;;;;-0.71;77.20;100219.81;5014845;28;103199;-74
2024/01/28 01:42:12;;;;;;;22.83;13.80;;;;;;;-0.93;76.87;100220.63;5018544;28;102766;-74
2024/01/28 01:44:40;;;;;;;17.15;13.68;;;;;;;-1.13;77.71;100215.31;5013034;28;103300;-74
2024/01/28 01:47:08;;;;;;;20.17;12.77;;;;;;;-1.23;78.95;100207.84;5016507;28;103276;-74
2024/01/28 01:49:37;;;;;;;19.40;12.85;;;;;;;-1.22;79.14;100211.28;5011914;28;102675;-74
2024/01/28 01:52:06;;;;;;;17.10;11.20;;;;;;;-1.16;79.12;100208.47;5016808;28;104415;-73
2024/01/28 01:54:35;;;;;;;14.38;11.25;;;;;;;-1.02;78.34;100202.78;5016360;27;103963;-74
2024/01/28 01:57:04;;;;;;;17.38;10.20;;;;;;;-1.03;78.38;100211.47;5016686;28;103361;-73
2024/01/28 01:59:33;;;;;;;15.75;10.50;;;;;;;-0.93;78.19;100198.94;5013968;28;102577;-74
2024/01/28 02:02:03;;;;;;;13.27;9.13;;;;;;;-0.89;78.11;100200.53;5019279;28;103714;-74
2024/01/28 02:04:31;;;;;;;18.85;10.90;;;;;;;-0.87;78.04;100196.97;4999080;28;104507;-74
2024/01/28 02:06:59;;;;;;;13.00;9.00;;;;;;;-0.87;78.22;100199.56;4996997;28;103230;-73
2024/01/28 02:09:27;;;;;;;15.93;11.75;;;;;;;-0.84;77.63;100203.81;4994298;28;102690;-73
2024/01/28 02:11:59;;;;;;;14.35;10.50;;;;;;;-0.86;77.78;100203.03;5013853;28;104181;-75
2024/01/28 02:14:28;;;;;;;12.18;8.80;;;;;;;-0.84;77.79;100209.00;5001021;28;104055;-74
2024/01/28 02:16:58;;;;;;;14.65;8.73;;;;;;;-0.81;77.81;100208.03;5023629;28;103211;-74
2024/01/28 02:19:27;;;;;;;23.65;11.93;;;;;;;-0.84;77.05;100198.59;5016019;28;102690;-74
2024/01/28 02:21:55;;;;;;;19.45;11.95;;;;;;;-1.02;78.38;100205.38;4998287;28;103731;-73
2024/01/28 02:24:24;;;;;;;19.40;12.30;;;;;;;-1.06;78.64;100199.44;5011535;28;103254;-73
2024/01/28 02:26:52;;;;;;;16.35;9.88;;;;;;;-1.02;79.21;100201.00;5015626;28;103230;-73
2024/01/28 02:29:20;;;;;;;10.93;8.50;;;;;;;-0.89;78.32;100195.31;5000841;28;102725;-74
2024/01/28 02:31:48;;;;;;;15.40;9.65;;;;;;;-0.89;77.40;100188.38;5019206;28;103389;-72
2024/01/28 02:34:16;;;;;;;16.63;10.20;;;;;;;-0.88;76.66;100177.09;5015792;28;102717;-72
2024/01/28 02:36:44;;;;;;;16.52;11.20;;;;;;;-0.89;76.41;100174.50;5007193;27;104377;-73
2024/01/28 02:39:12;;;;;;;23.45;12.60;;;;;;;-0.98;76.12;100173.13;5014014;28;102669;-73
2024/01/28 02:41:41;;;;;;;19.40;11.95;;;;;;;-1.09;76.15;100172.69;5016761;28;102919;-72
2024/01/28 02:44:09;;;;;;;21.77;13.00;;;;;;;-1.29;77.25;100176.88;5012757;28;103288;-74
2024/01/28 02:46:37;;;;;;;17.63;11.80;;;;;;;-1.30;77.52;100172.56;5015752;27;104089;-73
2024/01/28 02:49:07;;;;;;;18.63;11.82;;;;;;;-1.29;77.81;100174.28;4993498;28;102852;-74
2024/01/28 02:51:35;;;;;;;19.10;13.48;;;;;;;-1.44;78.48;100167.91;5013301;28;104143;-74
2024/01/28 02:54:03;;;;;;;21.25;13.40;;;;;;;-1.44;79.43;100169.63;5017915;28;103297;-73
2024/01/28 02:56:33;;;;;;;19.35;13.38;;;;;;;-1.37;78.84;100163.31;4995028;28;104092;-73
2024/01/28 02:59:03;;;;;;;22.38;12.38;;;;;;;-1.29;79.34;100161.28;4991863;28;102771;-73
2024/01/28 03:01:31;;;;;;;20.40;12.60;;;;;;;-1.38;79.39;100166.81;5012674;28;104227;-72
2024/01/28 03:03:59;;;;;;;17.58;11.52;;;;;;;-1.46;79.55;100163.66;5018473;28;103268;-72
2024/01/28 03:06:28;;;;;;;19.50;12.32;;;;;;;-1.53;80.12;100166.47;4989537;27;103110;-73
2024/01/28 03:08:57;;;;;;;17.02;10.95;;;;;;;-1.46;80.11;100158.47;5012670;28;102499;-72
2024/01/28 03:11:24;;;;;;;16.35;10.50;;;;;;;-1.37;79.89;100158.13;5016626;28;102606;-73
2024/01/28 03:13:52;;;;;;;16.90;11.77;;;;;;;-1.28;79.19;100167.34;5015297;28;103045;-72
2024/01/28 03:16:22;;;;;;;16.60;11.25;;;;;;;-1.29;79.68;100171.66;4992326;28;103663;-72
2024/01/28 03:18:49;;;;;;;20.05;11.80;;;;;;;-1.31;79.45;100164.81;5007605;28;102606;-72
2024/01/28 03:21:18;;;;;;;18.50;12.43;;;;;;;-1.32;79.34;100166.59;5016502;28;102711;-72
2024/01/28 03:23:46;;;;;;;14.38;10.38;;;;;;;-1.28;79.41;100167.34;5011934;28;103315;-72
2024/01/28 03:26:13;;;;;;;16.77;10.65;;;;;;;-1.25;79.30;100164.63;4998973;28;103097;-73
2024/01/28 03:28:42;;;;;;;15.48;10.50;;;;;;;-1.25;79.56;100165.44;5016389;28;102759;-73
2024/01/28 03:31:10;;;;;;;16.67;11.68;;;;;;;-1.21;79.60;100168.78;5019154;28;102624;-73
2024/01/28 03:33:40;;;;;;;13.00;8.63;;;;;;;-1.15;78.80;100165.09;4992518;28;104537;-73
2024/01/28 03:36:08;;;;;;;10.90;7.97;;;;;;;-1.11;78.76;100169.28;5010476;28;103280;-71
2024/01/28 03:38:36;;;;;;;9.13;7.13;;;;;;;-1.15;78.34;100167.69;5019071;28;102606;-73
2024/01/28 03:41:05;;;;;;;13.30;9.10;;;;;;;-1.17;78.16;100155.63;5018207;28;102590;-74
2024/01/28 03:43:32;;;;;;;14.15;9.05;;;;;;;-1.23;77.68;100157.59;4991571;28;103893;-73
2024/01/28 03:46:01;;;;;;;17.17;10.80;;;;;;;-1.23;78.16;100157.59;4997840;28;104150;-73
2024/01/28 03:48:28;;;;;;;13.25;8.70;;;;;;;-1.26;78.55;100150.75;5012551;28;102557;-73
2024/01/28 03:50:58;;;;;;;11.93;8.88;;;;;;;-1.23;78.41;100153.25;5005352;28;104166;-73
2024/01/28 03:53:26;;;;;;;16.80;9.75;;;;;;;-1.19;78.32;100151.41;5012610;28;103189;-73
2024/01/28 03:55:54;;;;;;;10.95;7.65;;;;;;;-1.17;78.00;100160.84;5009455;28;103443;-73
2024/01/28 03:58:22;;;;;;;11.48;8.10;;;;;;;-1.11;78.42;100157.16;4995035;28;102631;-73
2024/01/28 04:00:50;;;;;;;18.63;10.10;;;;;;;-1.05;77.83;100163.84;5010913;28;102741;-73
2024/01/28 04:03:18;;;;;;;15.98;11.30;;;;;;;-1.34;77.99;100155.38;5015457;27;103423;-73
2024/01/28 04:05:46;;;;;;;16.23;9.75;;;;;;;-1.48;78.73;100155.91;5015175;28;103270;-73
2024/01/28 04:08:15;;;;;;;13.32;8.75;;;;;;;-1.41;78.73;100161.75;4992576;28;102545;-73
2024/01/28 04:10:43;;;;;;;12.23;8.02;;;;;;;-1.40;78.51;100153.00;4993808;28;102596;-73
2024/01/28 04:13:10;;;;;;;11.25;6.93;;;;;;;-1.43;78.38;100153.13;5009632;28;103714;-72
2024/01/28 04:15:38;;;;;;;13.65;8.20;;;;;;;-1.45;78.34;100144.56;5016238;28;103167;-74
2024/01/28 04:18:06;;;;;;;11.07;7.32;;;;;;;-1.36;78.56;100144.22;4995650;28;102666;-72
2024/01/28 04:20:35;;;;;;;8.65;6.07;;;;;;;-1.30;77.88;100149.16;5014642;28;102589;-73
2024/01/28 04:23:03;;;;;;;15.85;10.23;;;;;;;-1.26;77.27;100145.56;4993946;28;104152;-73
2024/01/28 04:25:34;;;;;;;15.32;9.88;;;;;;;-1.37;76.94;100142.53;5019736;28;104525;-73
2024/01/28 04:28:02;;;;;;;12.75;7.50;;;;;;;-1.48;77.50;100142.06;5013501;28;102729;-72
2024/01/28 04:30:30;;;;;;;12.10;7.53;;;;;;;-1.50;77.66;100142.94;5016280;28;104350;-72
2024/01/28 04:32:58;;;;;;;15.82;9.68;;;;;;;-1.51;78.06;100146.47;5012603;28;103027;-72
2024/01/28 04:35:26;;;;;;;18.33;11.45;;;;;;;-1.49;78.92;100149.03;5017089;28;103306;-72
2024/01/28 04:37:53;;;;;;;20.48;11.80;;;;;;;-1.52;79.88;100147.38;5015244;28;102641;-72
2024/01/28 04:40:21;;;;;;;17.17;12.13;;;;;;;-1.57;80.00;100146.69;4999396;28;102632;-72
2024/01/28 04:42:51;;;;;;;13.70;10.07;;;;;;;-1.51;80.09;100151.69;4994901;28;103175;-72
2024/01/28 04:45:19;;;;;;;22.25;11.60;;;;;;;-1.58;80.40;100151.94;5018837;28;103274;-72
2024/01/28 04:47:47;;;;;;;16.23;12.35;;;;;;;-1.80;80.98;100149.25;4999158;28;102769;-72
2024/01/28 04:50:15;;;;;;;17.48;11.20;;;;;;;-1.74;80.86;100149.03;5017351;28;104004;-73
2024/01/28 04:52:43;;;;;;;15.00;10.10;;;;;;;-1.63;80.72;100152.09;5013708;28;103083;-72
2024/01/28 04:55:14;;;;;;;12.07;8.38;;;;;;;-1.58;80.61;100155.38;5020793;28;103192;-73
2024/01/28 04:57:44;;;;;;;14.85;9.88;;;;;;;-1.59;79.15;100153.69;5018682;28;102647;-73
2024/01/28 05:00:17;;;;;;;15.95;8.77;;;;;;;-1.54;78.43;100156.13;5021626;28;102688;-73
2024/01/28 05:02:45;;;;;;;19.50;11.55;;;;;;;-1.69;78.33;100158.38;5018142;28;104109;-73
2024/01/28 05:05:13;;;;;;;14.80;9.25;;;;;;;-1.61;79.02;100154.63;5016311;28;102666;-73
2024/01/28 05:07:43;;;;;;;15.55;10.00;;;;;;;-1.66;80.10;100157.41;5017300;28;102600;-74
2024/01/28 05:10:12;;;;;;;16.75;10.63;;;;;;;-1.55;80.38;100157.88;5022388;28;102626;-74
2024/01/28 05:12:40;;;;;;;11.07;8.30;;;;;;;-1.49;80.07;100164.63;5013375;28;103373;-74
2024/01/28 05:15:09;;;;;;;18.10;11.32;;;;;;;-1.64;81.08;100155.59;5016419;28;103096;-73
2024/01/28 05:17:38;;;;;;;17.55;10.75;;;;;;;-1.51;80.36;100162.06;5005256;28;102609;-73
2024/01/28 05:20:11;;;;;;;12.57;10.10;;;;;;;-1.51;80.42;100150.81;5002154;28;102710;-72
2024/01/28 05:22:39;;;;;;;15.10;10.68;;;;;;;-1.52;80.32;100147.38;5002861;28;103434;-74
2024/01/28 05:25:09;;;;;;;12.65;9.00;;;;;;;-1.54;79.92;100151.75;5014357;28;102628;-72
2024/01/28 05:27:37;;;;;;;10.40;8.00;;;;;;;-1.51;79.83;100143.88;5012513;28;102797;-73
2024/01/28 05:30:07;;;;;;;12.30;8.80;;;;;;;-1.44;78.99;100152.31;5004368;28;103774;-73
2024/01/28 05:32:35;;;;;;;12.40;7.90;;;;;;;-1.41;79.35;100149.56;5003881;28;103883;-73
2024/01/28 05:35:05;;;;;;;11.77;8.27;;;;;;;-1.40;78.20;100158.22;5011142;28;103221;-73
2024/01/28 05:37:32;;;;;;;11.93;7.13;;;;;;;-1.39;78.34;100150.38;4999805;28;102792;-72
2024/01/28 05:40:02;;;;;;;11.95;8.63;;;;;;;-1.33;78.04;100154.50;4997793;28;104528;-73
2024/01/28 05:42:30;;;;;;;11.15;8.63;;;;;;;-1.42;77.17;100149.63;5018263;28;103316;-72
2024/01/28 05:44:58;;;;;;;11.75;8.23;;;;;;;-1.44;77.35;100144.50;4998152;28;102980;-73
2024/01/28 05:47:26;;;;;;;11.38;7.40;;;;;;;-1.42;76.84;100154.84;4993648;28;102690;-72
2024/01/28 05:49:54;;;;;;;9.02;6.30;;;;;;;-1.51;76.39;100150.81;5017821;28;104005;-71
2024/01/28 05:52:23;;;;;;;10.07;6.72;;;;;;;-1.55;76.33;100144.88;5013198;28;104106;-72
2024/01/28 05:54:51;;;;;;;11.23;5.80;;;;;;;-1.51;76.76;100145.63;5019822;28;103269;-72
2024/01/28 05:57:19;;;;;;;7.68;5.57;;;;;;;-1.47;76.86;100146.34;4995472;28;102618;-73
2024/01/28 05:59:47;;;;;;;9.25;6.07;;;;;;;-1.50;76.09;100153.34;5017283;28;102617;-73
2024/01/28 06:02:19;;;;;;;13.48;9.85;;;;;;;-1.57;76.02;100146.69;4995225;28;104373;-73
2024/01/28 06:04:47;;;;;;;15.35;11.23;;;;;;;-1.80;75.92;100151.88;4999705;28;103530;-73
2024/01/28 06:07:15;;;;;;;16.55;10.38;;;;;;;-1.98;77.44;100159.38;4997197;28;102648;-72
2024/01/28 06:09:45;;;;;;;12.80;9.13;;;;;;;-1.91;77.64;100157.41;5001147;28;103667;-73
2024/01/28 06:12:13;;;;;;;9.65;7.10;;;;;;;-1.93;77.99;100162.66;5018422;28;103350;-72
2024/01/28 06:14:40;;;;;;;12.85;8.80;;;;;;;-1.91;77.74;100160.00;5003548;28;104334;-73
2024/01/28 06:17:09;;;;;;;16.63;9.63;;;;;;;-1.90;77.93;100149.59;4995071;28;102562;-73
2024/01/28 06:19:37;;;;;;;14.80;9.45;;;;;;;-1.92;77.72;100146.19;5020640;28;102946;-73
2024/01/28 06:22:04;;;;;;;12.45;8.43;;;;;;;-1.98;77.48;100151.56;5013901;28;103278;-73
2024/01/28 06:24:33;;;;;;;13.10;9.63;;;;;;;-1.92;78.17;100141.00;5020629;28;103263;-72
2024/01/28 06:27:02;;;;;;;15.77;9.98;;;;;;;-1.90;77.82;100141.78;4995331;28;102649;-73
2024/01/28 06:29:30;;;;;;;16.73;10.40;;;;;;;-2.00;78.24;100140.41;4999288;28;104164;-73
2024/01/28 06:31:58;;;;;;;16.02;11.43;;;;;;;-2.01;79.21;100151.69;5021819;28;103118;-73
2024/01/28 06:34:32;;;;;;;15.68;9.77;;;;;;;-1.93;79.18;100159.22;5010524;28;103476;-73
2024/01/28 06:37:00;;;;;;;12.40;8.65;;;;;;;-1.89;79.13;100151.25;4990998;28;102694;-73
2024/01/28 06:39:27;;;;;;;15.85;7.57;;;;;;;-1.90;79.59;100159.09;5016231;28;103734;-73
2024/01/28 06:41:56;;;;;;;15.20;8.23;;;;;;;-1.89;79.81;100156.44;5008967;28;104146;-72
2024/01/28 06:44:25;;;;;;;10.82;8.18;;;;;;;-1.78;79.16;100152.63;5008880;28;103272;-72
2024/01/28 06:46:53;;;;;;;13.10;8.00;;;;;;;-1.75;79.33;100136.97;5008208;28;102969;-71
2024/01/28 06:49:21;;;;;;;16.38;11.07;;;;;;;-1.88;78.85;100147.78;5005552;28;103107;-72
2024/01/28 06:51:49;;;;;;;16.08;11.98;;;;;;;-2.00;80.16;100140.41;4988482;28;104342;-71
2024/01/28 06:54:18;;;;;;;13.77;9.25;;;;;;;-1.89;80.06;100150.44;5010174;28;103246;-75
2024/01/28 06:56:46;;;;;;;16.08;10.25;;;;;;;-1.90;80.52;100147.00;4993361;28;105076;-73
2024/01/28 06:59:14;;;;;;;14.38;10.30;;;;;;;-1.83;80.99;100151.06;5014753;28;103707;-73
2024/01/28 07:01:45;;;;;;;13.48;9.13;;;;;;;-1.79;80.58;100150.97;4994347;28;104714;-73
2024/01/28 07:04:12;;;;;;;16.23;11.02;;;;;;;-1.76;79.93;100161.25;5010108;28;104392;-72
2024/01/28 07:06:43;;;;;;;15.05;11.13;;;;;;;-1.74;79.87;100167.22;5011783;28;102763;-73
2024/01/28 07:09:12;;;;;;;21.27;12.93;;;;;;;-1.73;80.77;100171.50;4991911;28;104262;-72
2024/01/28 07:11:39;;;;;;;16.83;11.52;;;;;;;-1.68;80.41;100169.59;4993424;28;103147;-73
2024/01/28 07:14:08;;;;;;;17.50;12.07;;;;;;;-1.59;80.42;100158.88;5010308;28;102714;-73
2024/01/28 07:16:35;;;;;;;17.02;12.20;;;;;;;-1.62;80.43;100159.00;4986246;28;102645;-69
2024/01/28 07:19:08;;;;;;;15.80;11.38;;;;;;;-1.57;80.50;100161.41;5011231;28;102683;-74
2024/01/28 07:21:40;;;;;;;17.05;11.90;;;;;;;-1.43;80.63;100163.53;5008355;28;103296;-71
2024/01/28 07:24:09;;;;;;;17.65;13.02;;;;;;;-1.48;80.71;100149.84;5010606;28;102823;-69
2024/01/28 07:26:40;;;;;;;19.15;13.43;;;;;;;-1.53;81.40;100163.88;5013223;28;102651;-78
2024/01/28 07:29:08;;;;;;;13.60;9.98;;;;;;;-1.39;81.73;100159.91;4994282;28;102765;-74
2024/01/28 07:31:36;;;;;;;17.98;12.52;;;;;;;-1.22;80.72;100162.75;5006772;28;104147;-76
2024/01/28 07:34:04;;;;;;;13.18;9.32;;;;;;;-1.16;80.45;100166.88;5006309;28;103293;-75
2024/01/28 07:36:33;;;;;;;12.13;8.20;;;;;;;-0.98;80.34;100160.13;5005919;28;102687;-73
2024/01/28 07:39:07;;;;;;;26.55;13.15;;;;;;;-0.89;79.04;100170.19;4990788;28;102707;-76
2024/01/28 07:41:36;;;;;;;13.77;9.93;;;;;;;-0.89;79.82;100164.97;5012750;28;103246;-74
2024/01/28 07:44:04;;;;;;;18.40;12.38;;;;;;;-0.70;78.98;100169.47;4991505;28;104146;-73
2024/01/28 07:46:32;;;;;;;17.27;10.90;;;;;;;-0.72;79.37;100156.50;4993516;28;102749;-74
2024/01/28 07:49:00;;;;;;;15.40;11.18;;;;;;;-0.68;79.48;100157.25;5010810;28;102689;-73
2024/01/28 07:51:30;;;;;;;19.08;12.63;;;;;;;-0.52;78.71;100160.91;4990613;28;102773;-74
2024/01/28 07:54:00;;;;;;;16.88;11.88;;;;;;;-0.37;78.62;100156.88;4995078;28;103453;-74
2024/01/28 07:56:28;;;;;;;13.63;9.95;;;;;;;0.04;78.44;100150.84;4990117;28;102746;-71
2024/01/28 07:58:56;;;;;;;18.23;13.30;;;;;;;0.26;76.73;100147.28;5018555;28;103092;-78
2024/01/28 08:01:23;;;;;;;17.13;11.13;;;;;;;0.44;76.40;100145.66;4992407;28;104199;-74
2024/01/28 08:03:51;;;;;;;17.67;12.88;;;;;;;0.58;75.81;100145.88;5012794;28;103152;-74
2024/01/28 08:06:20;;;;;;;14.70;10.88;;;;;;;0.59;76.20;100147.56;5005225;28;102623;-74
2024/01/28 08:08:50;;;;;;;14.25;10.48;;;;;;;0.69;76.00;100145.38;5002263;28;104021;-74
2024/01/28 08:11:19;;;;;;;16.70;10.52;;;;;;;0.95;75.29;100138.97;4989946;28;104415;-74
2024/01/28 08:13:48;;;;;;;23.08;14.30;;;;;;;0.74;75.39;100143.41;4998149;27;103281;-72
2024/01/28 08:16:16;;;;;;;21.60;14.93;;;;;;;0.69;75.00;100134.97;5011648;28;102735;-72
2024/01/28 08:18:45;;;;;;;27.27;16.40;;;;;;;0.71;75.91;100135.75;5016469;28;104194;-73
2024/01/28 08:21:14;;;;;;;20.90;14.38;;;;;;;1.04;74.95;100137.72;5005731;28;103267;-72
2024/01/28 08:23:42;;;;;;;19.63;13.80;;;;;;;1.37;74.46;100144.84;4993133;28;103906;-72
2024/01/28 08:26:09;;;;;;;20.42;13.38;;;;;;;1.64;73.25;100147.06;5009157;28;102889;-71
2024/01/28 08:28:39;;;;;;;21.52;13.60;;;;;;;1.91;73.06;100134.38;5000976;28;104068;-73
2024/01/28 08:31:07;;;;;;;22.23;14.55;;;;;;;1.81;72.91;100135.78;4989679;28;104425;-73
2024/01/28 08:33:35;;;;;;;21.20;14.05;;;;;;;2.02;72.41;100136.44;4986062;28;104243;-73
2024/01/28 08:36:03;;;;;;;16.27;11.60;;;;;;;1.88;73.47;100136.31;4987469;28;102764;-73
2024/01/28 08:38:32;;;;;;;21.27;15.25;;;;;;;1.82;72.28;100130.47;5008425;28;102691;-73
2024/01/28 08:41:00;;;;;;;23.00;16.70;;;;;;;2.01;72.42;100137.38;4986554;28;104531;-73
2024/01/28 08:43:27;;;;;;;23.27;15.73;;;;;;;2.27;71.56;100135.19;4987407;28;104375;-73
2024/01/28 08:45:57;;;;;;;25.58;16.77;;;;;;;2.34;70.78;100131.31;5013416;28;102564;-73
2024/01/28 08:48:25;;;;;;;22.92;14.95;;;;;;;2.48;70.99;100131.44;4993703;28;102986;-73
2024/01/28 08:50:56;;;;;;;20.02;14.15;;;;;;;2.49;70.43;100130.50;4984866;28;104305;-73
2024/01/28 08:53:24;;;;;;;18.75;14.55;;;;;;;2.44;71.28;100129.91;5002753;28;103492;-73
2024/01/28 08:55:52;;;;;;;20.17;14.05;;;;;;;2.91;70.06;100130.03;5005171;28;102773;-74
2024/01/28 08:58:20;;;;;;;17.45;12.70;;;;;;;2.75;70.64;100130.91;5011564;28;103642;-73
2024/01/28 09:00:48;;;;;;;21.65;13.80;;;;;;;2.87;69.73;100131.16;4985555;28;104194;-73
2024/01/28 09:03:17;;;;;;;19.10;12.02;;;;;;;2.83;70.58;100133.09;5011470;28;103407;-73
2024/01/28 09:05:45;;;;;;;14.63;10.65;;;;;;;3.09;69.68;100144.78;5007985;27;103864;-73
2024/01/28 09:08:13;;;;;;;15.07;10.80;;;;;;;3.32;69.14;100140.84;4990378;28;104181;-73
2024/01/28 09:10:41;;;;;;;13.00;9.48;;;;;;;3.53;68.86;100134.50;5010853;28;103156;-73
2024/01/28 09:13:09;;;;;;;16.88;11.35;;;;;;;3.41;67.39;100139.50;5015955;27;104085;-73
2024/01/28 09:15:37;;;;;;;14.77;9.35;;;;;;;3.35;68.38;100146.84;5007157;28;102623;-73
2024/01/28 09:18:05;;;;;;;14.98;10.93;;;;;;;3.83;67.11;100144.97;4992019;28;104240;-72
2024/01/28 09:20:35;;;;;;;14.68;10.65;;;;;;;3.84;67.27;100145.81;4992666;28;104166;-73
2024/01/28 09:23:04;;;;;;;14.30;10.63;;;;;;;4.02;66.92;100144.72;5008802;28;103379;-73
2024/01/28 09:25:35;;;;;;;16.70;10.52;;;;;;;4.01;66.19;100137.81;5007094;28;102678;-73
2024/01/28 09:28:03;;;;;;;12.85;9.57;;;;;;;4.13;66.65;100151.97;5011238;28;104572;-73
2024/01/28 09:30:31;;;;;;;11.52;9.05;;;;;;;4.13;66.77;100150.19;5010363;28;103376;-73
2024/01/28 09:33:00;;;;;;;16.42;9.75;;;;;;;4.15;64.94;100150.09;5014532;28;103239;-73
2024/01/28 09:35:28;;;;;;;13.30;9.48;;;;;;;4.13;65.57;100155.44;5013326;28;102623;-73
2024/01/28 09:37:57;;;;;;;11.68;9.00;;;;;;;4.50;65.92;100154.19;5007512;28;102799;-73
2024/01/28 09:40:25;;;;;;;11.57;9.07;;;;;;;4.59;65.24;100153.63;5001837;28;103335;-74
2024/01/28 09:43:04;;;;;;;13.90;9.07;;;;;;;4.58;64.70;100149.28;5008520;28;102983;-74
2024/01/28 09:45:33;;;;;;;17.05;10.27;;;;;;;4.52;65.14;100142.66;5009561;27;102628;-75
2024/01/28 09:48:02;;;;;;;13.02;9.13;;;;;;;4.61;64.20;100147.34;4986122;28;102851;-75
2024/01/28 09:50:30;;;;;;;13.50;9.25;;;;;;;4.60;64.11;100145.63;5016336;28;103270;-75
2024/01/28 09:53:04;;;;;;;11.40;8.20;;;;;;;4.77;64.57;100152.47;5010018;28;103225;-74
2024/01/28 09:55:33;;;;;;;14.13;9.75;;;;;;;4.84;64.18;100144.22;4983577;28;102768;-73
2024/01/28 09:58:01;;;;;;;14.38;8.60;;;;;;;5.03;63.76;100143.91;5004178;28;104312;-74
2024/01/28 10:00:31;;;;;;;14.27;8.75;;;;;;;4.96;63.72;100144.28;4990072;28;102988;-74
2024/01/28 10:02:59;;;;;;;12.43;8.27;;;;;;;5.14;63.22;100137.03;5012602;28;103215;-74
2024/01/28 10:05:28;;;;;;;12.27;8.13;;;;;;;5.30;63.03;100138.66;5008578;28;103139;-71
2024/01/28 10:08:00;;;;;;;13.02;8.10;;;;;;;5.44;63.22;100138.63;4993412;28;103859;-72
2024/01/28 10:10:32;;;;;;;12.05;8.80;;;;;;;5.23;62.85;100127.72;5011905;27;104075;-72
2024/01/28 10:13:00;;;;;;;11.30;8.85;;;;;;;5.37;62.58;100134.72;4991320;28;104120;-72
2024/01/28 10:15:28;;;;;;;12.50;8.07;;;;;;;5.53;61.98;100124.03;5011427;28;102868;-74
2024/01/28 10:17:56;;;;;;;13.32;9.05;;;;;;;5.58;61.79;100127.22;4986928;28;104695;-74
2024/01/28 10:20:26;;;;;;;10.32;7.78;;;;;;;5.80;62.15;100121.38;5005123;28;103244;-73
2024/01/28 10:22:54;;;;;;;11.10;7.90;;;;;;;5.79;61.35;100117.06;5004772;28;103302;-72
2024/01/28 10:25:22;;;;;;;12.30;8.35;;;;;;;5.79;61.26;100109.16;5007963;28;102748;-72
2024/01/28 10:27:52;;;;;;;13.25;7.65;;;;;;;5.84;60.66;100105.38;5006557;28;104177;-72
2024/01/28 10:30:20;;;;;;;10.77;7.50;;;;;;;5.82;60.27;100106.31;5005626;28;103793;-72
2024/01/28 10:32:48;;;;;;;11.10;7.22;;;;;;;6.08;60.28;100109.03;5006903;28;103387;-73
2024/01/28 10:35:16;;;;;;;11.25;7.88;;;;;;;6.22;59.53;100109.84;5010563;28;102683;-73
2024/01/28 10:37:51;;;;;;;9.35;6.78;;;;;;;6.25;58.98;100107.00;4987740;28;104110;-74
2024/01/28 10:40:20;;;;;;;11.75;7.13;;;;;;;6.43;58.31;100100.50;4986690;28;104001;-73
2024/01/28 10:42:50;;;;;;;10.30;7.13;;;;;;;6.51;57.88;100093.84;5011101;28;103233;-74
2024/01/28 10:45:20;;;;;;;8.40;6.53;;;;;;;6.66;58.25;100092.75;4989365;28;102794;-74
2024/01/28 10:47:53;;;;;;;10.18;7.07;;;;;;;6.88;57.14;100097.34;4995807;28;102819;-74
2024/01/28 10:50:22;;;;;;;8.45;6.20;;;;;;;6.67;56.63;100093.59;4984138;28;103373;-74
2024/01/28 10:52:51;;;;;;;10.13;7.30;;;;;;;6.93;56.56;100094.38;5007018;28;103305;-74
2024/01/28 10:55:22;;;;;;;9.85;6.47;;;;;;;7.16;56.55;100094.50;4984609;28;102805;-74
2024/01/28 10:57:50;;;;;;;9.27;6.40;;;;;;;7.26;56.52;100090.25;5008560;28;103851;-74
2024/01/28 11:00:24;;;;;;;9.45;6.82;;;;;;;7.50;55.37;100098.13;4990163;28;104157;-74
2024/01/28 11:02:54;;;;;;;9.27;6.53;;;;;;;7.60;54.53;100091.22;5012072;28;102816;-73
2024/01/28 11:05:24;;;;;;;8.73;5.97;;;;;;;7.62;55.26;100093.75;5010585;28;102691;-74
2024/01/28 11:07:53;;;;;;;10.00;6.07;;;;;;;7.68;54.22;100088.00;4985838;28;102756;-74
2024/01/28 11:10:31;;;;;;;10.32;6.53;;;;;;;7.55;55.27;100081.97;5005125;28;103257;-73
2024/01/28 11:13:06;;;;;;;12.10;7.07;;;;;;;8.07;54.16;100072.75;5011073;28;104542;-72